sensor_id;sensor_type;location;lat;lon;timestamp;P1;durP1;ratioP1;P2;durP2;ratioP2
15679;SDS011;15488;48.114;11.532;2023-05-16T00:02:13;2.90;;;2.70;;
15679;SDS011;15488;48.114;11.532;2023-05-16T00:04:41;3.13;;;2.83;;
15679;SDS011;15488;48.114;11.532;2023-05-16T00:07:11;3.20;;;2.90;;
15679;SDS011;15488;48.114;11.532;2023-05-16T00:09:38;2.90;;;2.60;;
15679;SDS011;15488;48.114;11.532;2023-05-16T00:12:06;4.90;;;2.70;;
15679;SDS011;15488;48.114;11.532;2023-05-16T00:14:33;3.27;;;2.97;;
15679;SDS011;15488;48.114;11.532;2023-05-16T00:17:01;3.47;;;2.97;;
15679;SDS011;15488;48.114;11.532;2023-05-16T00:19:35;3.63;;;2.90;;
15679;SDS011;15488;48.114;11.532;2023-05-16T00:22:04;2.87;;;2.57;;
15679;SDS011;15488;48.114;11.532;2023-05-16T00:24:33;3.33;;;2.90;;
15679;SDS011;15488;48.114;11.532;2023-05-16T00:27:00;3.70;;;2.87;;
15679;SDS011;15488;48.114;11.532;2023-05-16T00:29:29;3.27;;;2.97;;
15679;SDS011;15488;48.114;11.532;2023-05-16T00:31:57;3.03;;;2.73;;
15679;SDS011;15488;48.114;11.532;2023-05-16T00:34:24;3.70;;;3.10;;
15679;SDS011;15488;48.114;11.532;2023-05-16T00:36:52;3.37;;;3.07;;
15679;SDS011;15488;48.114;11.532;2023-05-16T00:39:19;4.30;;;3.10;;
15679;SDS011;15488;48.114;11.532;2023-05-16T00:41:48;3.90;;;3.50;;
15679;SDS011;15488;48.114;11.532;2023-05-16T00:44:15;4.90;;;3.80;;
15679;SDS011;15488;48.114;11.532;2023-05-16T00:46:43;3.80;;;3.30;;
15679;SDS011;15488;48.114;11.532;2023-05-16T00:49:11;3.53;;;2.90;;
15679;SDS011;15488;48.114;11.532;2023-05-16T00:51:38;4.33;;;3.37;;
15679;SDS011;15488;48.114;11.532;2023-05-16T00:54:06;3.33;;;2.93;;
15679;SDS011;15488;48.114;11.532;2023-05-16T00:56:33;3.20;;;2.90;;
15679;SDS011;15488;48.114;11.532;2023-05-16T00:59:02;3.83;;;3.10;;
15679;SDS011;15488;48.114;11.532;2023-05-16T01:01:30;3.87;;;3.10;;
15679;SDS011;15488;48.114;11.532;2023-05-16T01:03:58;5.17;;;2.90;;
15679;SDS011;15488;48.114;11.532;2023-05-16T01:06:26;3.40;;;3.10;;
15679;SDS011;15488;48.114;11.532;2023-05-16T01:08:53;3.10;;;2.80;;
15679;SDS011;15488;48.114;11.532;2023-05-16T01:11:21;3.30;;;3.00;;
15679;SDS011;15488;48.114;11.532;2023-05-16T01:13:54;3.43;;;3.13;;
15679;SDS011;15488;48.114;11.532;2023-05-16T01:16:34;3.53;;;3.23;;
15679;SDS011;15488;48.114;11.532;2023-05-16T01:19:06;3.77;;;3.20;;
15679;SDS011;15488;48.114;11.532;2023-05-16T01:21:47;3.67;;;3.37;;
15679;SDS011;15488;48.114;11.532;2023-05-16T01:24:32;4.30;;;3.43;;
15679;SDS011;15488;48.114;11.532;2023-05-16T01:27:05;3.50;;;3.20;;
15679;SDS011;15488;48.114;11.532;2023-05-16T01:29:34;3.50;;;3.20;;
15679;SDS011;15488;48.114;11.532;2023-05-16T01:32:04;3.40;;;3.10;;
15679;SDS011;15488;48.114;11.532;2023-05-16T01:34:32;4.10;;;3.50;;
15679;SDS011;15488;48.114;11.532;2023-05-16T01:37:01;4.10;;;3.27;;
15679;SDS011;15488;48.114;11.532;2023-05-16T01:39:46;4.23;;;3.10;;
15679;SDS011;15488;48.114;11.532;2023-05-16T01:42:23;4.10;;;3.30;;
15679;SDS011;15488;48.114;11.532;2023-05-16T01:44:53;3.23;;;2.93;;
15679;SDS011;15488;48.114;11.532;2023-05-16T01:47:26;3.60;;;3.27;;
15679;SDS011;15488;48.114;11.532;2023-05-16T01:49:56;4.27;;;3.40;;
15679;SDS011;15488;48.114;11.532;2023-05-16T01:52:34;3.50;;;3.13;;
15679;SDS011;15488;48.114;11.532;2023-05-16T01:55:10;3.93;;;3.27;;
15679;SDS011;15488;48.114;11.532;2023-05-16T01:57:45;3.60;;;3.30;;
15679;SDS011;15488;48.114;11.532;2023-05-16T02:00:15;3.47;;;3.17;;
15679;SDS011;15488;48.114;11.532;2023-05-16T02:02:42;3.63;;;3.27;;
15679;SDS011;15488;48.114;11.532;2023-05-16T02:05:10;4.57;;;3.50;;
15679;SDS011;15488;48.114;11.532;2023-05-16T02:07:38;3.87;;;3.47;;
15679;SDS011;15488;48.114;11.532;2023-05-16T02:10:06;4.00;;;3.50;;
15679;SDS011;15488;48.114;11.532;2023-05-16T02:12:35;3.43;;;3.13;;
15679;SDS011;15488;48.114;11.532;2023-05-16T02:15:04;3.53;;;3.23;;
15679;SDS011;15488;48.114;11.532;2023-05-16T02:17:33;4.43;;;3.60;;
15679;SDS011;15488;48.114;11.532;2023-05-16T02:20:00;4.87;;;3.30;;
15679;SDS011;15488;48.114;11.532;2023-05-16T02:22:31;3.70;;;3.40;;
15679;SDS011;15488;48.114;11.532;2023-05-16T02:24:59;4.20;;;3.77;;
15679;SDS011;15488;48.114;11.532;2023-05-16T02:27:27;3.57;;;3.23;;
15679;SDS011;15488;48.114;11.532;2023-05-16T02:29:55;5.47;;;3.47;;
15679;SDS011;15488;48.114;11.532;2023-05-16T02:32:24;4.90;;;3.87;;
15679;SDS011;15488;48.114;11.532;2023-05-16T02:34:54;4.07;;;3.67;;
15679;SDS011;15488;48.114;11.532;2023-05-16T02:37:21;4.03;;;3.47;;
15679;SDS011;15488;48.114;11.532;2023-05-16T02:39:49;3.93;;;3.33;;
15679;SDS011;15488;48.114;11.532;2023-05-16T02:42:16;5.13;;;4.13;;
15679;SDS011;15488;48.114;11.532;2023-05-16T02:44:44;4.00;;;3.60;;
15679;SDS011;15488;48.114;11.532;2023-05-16T02:47:11;3.70;;;3.40;;
15679;SDS011;15488;48.114;11.532;2023-05-16T02:49:40;6.43;;;3.93;;
15679;SDS011;15488;48.114;11.532;2023-05-16T02:52:08;6.00;;;3.73;;
15679;SDS011;15488;48.114;11.532;2023-05-16T02:54:36;4.07;;;3.63;;
15679;SDS011;15488;48.114;11.532;2023-05-16T02:57:03;4.03;;;3.57;;
15679;SDS011;15488;48.114;11.532;2023-05-16T02:59:31;4.13;;;3.73;;
15679;SDS011;15488;48.114;11.532;2023-05-16T03:01:58;3.80;;;3.40;;
15679;SDS011;15488;48.114;11.532;2023-05-16T03:04:25;4.57;;;3.50;;
15679;SDS011;15488;48.114;11.532;2023-05-16T03:06:54;5.03;;;3.50;;
15679;SDS011;15488;48.114;11.532;2023-05-16T03:09:22;4.27;;;3.80;;
15679;SDS011;15488;48.114;11.532;2023-05-16T03:11:49;5.67;;;3.77;;
15679;SDS011;15488;48.114;11.532;2023-05-16T03:14:17;5.30;;;3.50;;
15679;SDS011;15488;48.114;11.532;2023-05-16T03:16:45;4.27;;;3.70;;
15679;SDS011;15488;48.114;11.532;2023-05-16T03:19:13;4.43;;;3.80;;
15679;SDS011;15488;48.114;11.532;2023-05-16T03:21:40;4.03;;;3.43;;
15679;SDS011;15488;48.114;11.532;2023-05-16T03:24:09;4.13;;;3.73;;
15679;SDS011;15488;48.114;11.532;2023-05-16T03:26:37;4.33;;;3.87;;
15679;SDS011;15488;48.114;11.532;2023-05-16T03:29:04;6.47;;;3.73;;
15679;SDS011;15488;48.114;11.532;2023-05-16T03:31:32;4.30;;;3.80;;
15679;SDS011;15488;48.114;11.532;2023-05-16T03:34:01;5.63;;;4.00;;
15679;SDS011;15488;48.114;11.532;2023-05-16T03:36:28;4.33;;;3.70;;
15679;SDS011;15488;48.114;11.532;2023-05-16T03:38:56;4.43;;;3.90;;
15679;SDS011;15488;48.114;11.532;2023-05-16T03:41:24;4.13;;;3.73;;
15679;SDS011;15488;48.114;11.532;2023-05-16T03:43:52;4.37;;;3.60;;
15679;SDS011;15488;48.114;11.532;2023-05-16T03:46:19;3.83;;;3.43;;
15679;SDS011;15488;48.114;11.532;2023-05-16T03:48:47;5.60;;;3.97;;
15679;SDS011;15488;48.114;11.532;2023-05-16T03:51:14;5.13;;;3.83;;
15679;SDS011;15488;48.114;11.532;2023-05-16T03:53:42;3.93;;;3.20;;
15679;SDS011;15488;48.114;11.532;2023-05-16T03:56:09;4.10;;;3.70;;
15679;SDS011;15488;48.114;11.532;2023-05-16T03:58:38;4.57;;;3.70;;
15679;SDS011;15488;48.114;11.532;2023-05-16T04:01:06;4.37;;;3.70;;
15679;SDS011;15488;48.114;11.532;2023-05-16T04:03:33;4.50;;;3.80;;
15679;SDS011;15488;48.114;11.532;2023-05-16T04:06:02;4.27;;;3.87;;
15679;SDS011;15488;48.114;11.532;2023-05-16T04:08:31;4.60;;;3.80;;
15679;SDS011;15488;48.114;11.532;2023-05-16T04:10:59;5.20;;;3.97;;
15679;SDS011;15488;48.114;11.532;2023-05-16T04:13:26;4.63;;;3.87;;
15679;SDS011;15488;48.114;11.532;2023-05-16T04:15:55;5.23;;;4.60;;
15679;SDS011;15488;48.114;11.532;2023-05-16T04:18:23;5.60;;;4.57;;
15679;SDS011;15488;48.114;11.532;2023-05-16T04:20:50;4.87;;;4.30;;
15679;SDS011;15488;48.114;11.532;2023-05-16T04:23:17;5.13;;;4.30;;
15679;SDS011;15488;48.114;11.532;2023-05-16T04:25:45;4.73;;;4.27;;
15679;SDS011;15488;48.114;11.532;2023-05-16T04:28:12;4.83;;;4.30;;
15679;SDS011;15488;48.114;11.532;2023-05-16T04:30:40;4.90;;;4.10;;
15679;SDS011;15488;48.114;11.532;2023-05-16T04:33:09;5.27;;;4.27;;
15679;SDS011;15488;48.114;11.532;2023-05-16T04:35:36;5.67;;;4.50;;
15679;SDS011;15488;48.114;11.532;2023-05-16T04:38:04;4.97;;;4.30;;
15679;SDS011;15488;48.114;11.532;2023-05-16T04:40:31;6.27;;;4.60;;
15679;SDS011;15488;48.114;11.532;2023-05-16T04:42:59;5.37;;;4.17;;
15679;SDS011;15488;48.114;11.532;2023-05-16T04:45:26;5.07;;;4.30;;
15679;SDS011;15488;48.114;11.532;2023-05-16T04:47:54;6.20;;;4.40;;
15679;SDS011;15488;48.114;11.532;2023-05-16T04:50:23;5.63;;;4.67;;
15679;SDS011;15488;48.114;11.532;2023-05-16T04:52:50;6.67;;;4.60;;
15679;SDS011;15488;48.114;11.532;2023-05-16T04:55:18;5.50;;;4.70;;
15679;SDS011;15488;48.114;11.532;2023-05-16T04:57:45;4.77;;;4.13;;
15679;SDS011;15488;48.114;11.532;2023-05-16T05:00:14;5.70;;;4.37;;
15679;SDS011;15488;48.114;11.532;2023-05-16T05:02:42;5.70;;;4.77;;
15679;SDS011;15488;48.114;11.532;2023-05-16T05:05:10;5.87;;;4.70;;
15679;SDS011;15488;48.114;11.532;2023-05-16T05:07:39;6.63;;;5.00;;
15679;SDS011;15488;48.114;11.532;2023-05-16T05:10:07;6.70;;;4.63;;
15679;SDS011;15488;48.114;11.532;2023-05-16T05:12:35;7.17;;;4.77;;
15679;SDS011;15488;48.114;11.532;2023-05-16T05:15:03;7.77;;;4.90;;
15679;SDS011;15488;48.114;11.532;2023-05-16T05:17:31;5.97;;;4.77;;
15679;SDS011;15488;48.114;11.532;2023-05-16T05:19:59;5.97;;;4.77;;
15679;SDS011;15488;48.114;11.532;2023-05-16T05:22:30;6.13;;;5.03;;
15679;SDS011;15488;48.114;11.532;2023-05-16T05:24:59;9.33;;;5.40;;
15679;SDS011;15488;48.114;11.532;2023-05-16T05:27:27;6.70;;;5.50;;
15679;SDS011;15488;48.114;11.532;2023-05-16T05:29:55;6.17;;;5.03;;
15679;SDS011;15488;48.114;11.532;2023-05-16T05:32:22;8.00;;;6.50;;
15679;SDS011;15488;48.114;11.532;2023-05-16T05:34:50;8.63;;;6.20;;
15679;SDS011;15488;48.114;11.532;2023-05-16T05:37:17;7.57;;;5.67;;
15679;SDS011;15488;48.114;11.532;2023-05-16T05:39:45;6.97;;;5.40;;
15679;SDS011;15488;48.114;11.532;2023-05-16T05:42:14;7.40;;;5.80;;
15679;SDS011;15488;48.114;11.532;2023-05-16T05:47:12;6.63;;;5.70;;
15679;SDS011;15488;48.114;11.532;2023-05-16T05:49:40;7.97;;;6.47;;
15679;SDS011;15488;48.114;11.532;2023-05-16T05:52:08;7.60;;;5.57;;
15679;SDS011;15488;48.114;11.532;2023-05-16T05:54:35;9.57;;;6.63;;
15679;SDS011;15488;48.114;11.532;2023-05-16T05:57:03;10.97;;;7.73;;
15679;SDS011;15488;48.114;11.532;2023-05-16T05:59:32;10.70;;;7.83;;
15679;SDS011;15488;48.114;11.532;2023-05-16T06:01:59;10.07;;;6.80;;
15679;SDS011;15488;48.114;11.532;2023-05-16T06:04:30;8.07;;;7.00;;
15679;SDS011;15488;48.114;11.532;2023-05-16T06:07:00;9.00;;;6.60;;
15679;SDS011;15488;48.114;11.532;2023-05-16T06:09:28;8.83;;;7.23;;
15679;SDS011;15488;48.114;11.532;2023-05-16T06:11:55;8.30;;;6.60;;
15679;SDS011;15488;48.114;11.532;2023-05-16T06:14:24;10.60;;;6.60;;
15679;SDS011;15488;48.114;11.532;2023-05-16T06:16:53;7.33;;;6.40;;
15679;SDS011;15488;48.114;11.532;2023-05-16T06:19:21;9.43;;;6.87;;
15679;SDS011;15488;48.114;11.532;2023-05-16T06:21:49;8.63;;;7.17;;
15679;SDS011;15488;48.114;11.532;2023-05-16T06:24:27;8.80;;;6.63;;
15679;SDS011;15488;48.114;11.532;2023-05-16T06:26:54;8.73;;;6.50;;
15679;SDS011;15488;48.114;11.532;2023-05-16T06:29:22;7.83;;;6.37;;
15679;SDS011;15488;48.114;11.532;2023-05-16T06:31:49;9.33;;;7.20;;
15679;SDS011;15488;48.114;11.532;2023-05-16T06:34:18;8.93;;;6.93;;
15679;SDS011;15488;48.114;11.532;2023-05-16T06:36:51;7.40;;;6.43;;
15679;SDS011;15488;48.114;11.532;2023-05-16T06:39:19;8.90;;;6.90;;
15679;SDS011;15488;48.114;11.532;2023-05-16T06:41:46;9.00;;;6.93;;
15679;SDS011;15488;48.114;11.532;2023-05-16T06:44:14;14.93;;;9.20;;
15679;SDS011;15488;48.114;11.532;2023-05-16T06:46:41;12.07;;;9.33;;
15679;SDS011;15488;48.114;11.532;2023-05-16T06:49:08;10.70;;;7.50;;
15679;SDS011;15488;48.114;11.532;2023-05-16T06:51:37;11.87;;;7.27;;
15679;SDS011;15488;48.114;11.532;2023-05-16T06:54:05;8.33;;;7.00;;
15679;SDS011;15488;48.114;11.532;2023-05-16T06:56:33;10.60;;;8.43;;
15679;SDS011;15488;48.114;11.532;2023-05-16T06:59:00;9.60;;;7.67;;
15679;SDS011;15488;48.114;11.532;2023-05-16T07:01:28;10.40;;;7.83;;
15679;SDS011;15488;48.114;11.532;2023-05-16T07:03:57;8.37;;;6.60;;
15679;SDS011;15488;48.114;11.532;2023-05-16T07:06:24;9.63;;;7.77;;
15679;SDS011;15488;48.114;11.532;2023-05-16T07:08:53;11.03;;;7.87;;
15679;SDS011;15488;48.114;11.532;2023-05-16T07:11:21;9.80;;;7.63;;
15679;SDS011;15488;48.114;11.532;2023-05-16T07:13:48;10.27;;;7.30;;
15679;SDS011;15488;48.114;11.532;2023-05-16T07:16:16;8.40;;;6.63;;
15679;SDS011;15488;48.114;11.532;2023-05-16T07:18:43;9.40;;;7.73;;
15679;SDS011;15488;48.114;11.532;2023-05-16T07:21:10;11.00;;;8.17;;
15679;SDS011;15488;48.114;11.532;2023-05-16T07:23:38;9.30;;;7.63;;
15679;SDS011;15488;48.114;11.532;2023-05-16T07:26:07;8.10;;;7.03;;
15679;SDS011;15488;48.114;11.532;2023-05-16T07:28:34;11.00;;;8.50;;
15679;SDS011;15488;48.114;11.532;2023-05-16T07:31:02;8.97;;;7.83;;
15679;SDS011;15488;48.114;11.532;2023-05-16T07:33:30;10.87;;;7.93;;
15679;SDS011;15488;48.114;11.532;2023-05-16T07:35:58;8.83;;;7.33;;
15679;SDS011;15488;48.114;11.532;2023-05-16T07:38:26;10.37;;;7.33;;
15679;SDS011;15488;48.114;11.532;2023-05-16T07:40:53;7.73;;;6.87;;
15679;SDS011;15488;48.114;11.532;2023-05-16T07:43:22;8.33;;;6.97;;
15679;SDS011;15488;48.114;11.532;2023-05-16T07:45:50;10.13;;;7.70;;
15679;SDS011;15488;48.114;11.532;2023-05-16T07:48:17;9.57;;;7.37;;
15679;SDS011;15488;48.114;11.532;2023-05-16T07:50:45;8.50;;;7.30;;
15679;SDS011;15488;48.114;11.532;2023-05-16T07:53:12;9.93;;;8.07;;
15679;SDS011;15488;48.114;11.532;2023-05-16T07:55:40;9.33;;;7.07;;
15679;SDS011;15488;48.114;11.532;2023-05-16T07:58:07;10.63;;;7.87;;
15679;SDS011;15488;48.114;11.532;2023-05-16T08:00:36;9.47;;;7.30;;
15679;SDS011;15488;48.114;11.532;2023-05-16T08:03:04;8.53;;;7.20;;
15679;SDS011;15488;48.114;11.532;2023-05-16T08:05:31;8.37;;;7.13;;
15679;SDS011;15488;48.114;11.532;2023-05-16T08:07:59;8.90;;;7.60;;
15679;SDS011;15488;48.114;11.532;2023-05-16T08:10:26;11.30;;;8.17;;
15679;SDS011;15488;48.114;11.532;2023-05-16T08:12:54;10.87;;;8.40;;
15679;SDS011;15488;48.114;11.532;2023-05-16T08:15:21;13.93;;;9.00;;
15679;SDS011;15488;48.114;11.532;2023-05-16T08:17:51;11.63;;;8.47;;
15679;SDS011;15488;48.114;11.532;2023-05-16T08:20:20;12.37;;;8.53;;
15679;SDS011;15488;48.114;11.532;2023-05-16T08:22:47;11.53;;;8.23;;
15679;SDS011;15488;48.114;11.532;2023-05-16T08:25:14;12.63;;;8.60;;
15679;SDS011;15488;48.114;11.532;2023-05-16T08:27:43;10.80;;;8.00;;
15679;SDS011;15488;48.114;11.532;2023-05-16T08:30:11;10.73;;;8.17;;
15679;SDS011;15488;48.114;11.532;2023-05-16T08:32:39;9.93;;;8.10;;
15679;SDS011;15488;48.114;11.532;2023-05-16T08:35:08;9.47;;;8.00;;
15679;SDS011;15488;48.114;11.532;2023-05-16T08:37:37;10.40;;;8.13;;
15679;SDS011;15488;48.114;11.532;2023-05-16T08:40:05;9.87;;;8.13;;
15679;SDS011;15488;48.114;11.532;2023-05-16T08:42:35;10.10;;;8.10;;
15679;SDS011;15488;48.114;11.532;2023-05-16T08:45:02;9.97;;;7.60;;
15679;SDS011;15488;48.114;11.532;2023-05-16T08:47:32;10.30;;;8.13;;
15679;SDS011;15488;48.114;11.532;2023-05-16T08:50:01;10.40;;;7.83;;
15679;SDS011;15488;48.114;11.532;2023-05-16T08:52:31;9.60;;;8.23;;
15679;SDS011;15488;48.114;11.532;2023-05-16T08:55:00;10.57;;;8.90;;
15679;SDS011;15488;48.114;11.532;2023-05-16T08:57:30;9.77;;;8.03;;
15679;SDS011;15488;48.114;11.532;2023-05-16T08:59:58;8.97;;;8.03;;
15679;SDS011;15488;48.114;11.532;2023-05-16T09:02:35;11.03;;;8.67;;
15679;SDS011;15488;48.114;11.532;2023-05-16T09:05:03;10.47;;;8.70;;
15679;SDS011;15488;48.114;11.532;2023-05-16T09:07:35;12.33;;;10.17;;
15679;SDS011;15488;48.114;11.532;2023-05-16T09:10:02;13.07;;;10.23;;
15679;SDS011;15488;48.114;11.532;2023-05-16T09:12:31;12.97;;;9.80;;
15679;SDS011;15488;48.114;11.532;2023-05-16T09:14:59;10.80;;;9.47;;
15679;SDS011;15488;48.114;11.532;2023-05-16T09:17:32;10.50;;;8.63;;
15679;SDS011;15488;48.114;11.532;2023-05-16T09:20:07;12.03;;;9.17;;
15679;SDS011;15488;48.114;11.532;2023-05-16T09:22:37;10.97;;;9.20;;
15679;SDS011;15488;48.114;11.532;2023-05-16T09:25:05;12.40;;;9.23;;
15679;SDS011;15488;48.114;11.532;2023-05-16T09:27:33;10.83;;;8.90;;
15679;SDS011;15488;48.114;11.532;2023-05-16T09:30:01;11.30;;;8.57;;
15679;SDS011;15488;48.114;11.532;2023-05-16T09:32:30;11.63;;;9.70;;
15679;SDS011;15488;48.114;11.532;2023-05-16T09:34:58;12.97;;;9.70;;
15679;SDS011;15488;48.114;11.532;2023-05-16T09:37:25;11.13;;;9.30;;
15679;SDS011;15488;48.114;11.532;2023-05-16T09:39:54;12.63;;;9.53;;
15679;SDS011;15488;48.114;11.532;2023-05-16T09:42:21;13.03;;;9.50;;
15679;SDS011;15488;48.114;11.532;2023-05-16T09:44:51;11.03;;;9.27;;
15679;SDS011;15488;48.114;11.532;2023-05-16T09:47:20;10.40;;;8.93;;
15679;SDS011;15488;48.114;11.532;2023-05-16T09:49:50;10.33;;;9.13;;
15679;SDS011;15488;48.114;11.532;2023-05-16T09:52:18;10.13;;;9.00;;
15679;SDS011;15488;48.114;11.532;2023-05-16T09:54:46;11.77;;;9.10;;
15679;SDS011;15488;48.114;11.532;2023-05-16T09:57:17;11.23;;;8.97;;
15679;SDS011;15488;48.114;11.532;2023-05-16T09:59:45;10.53;;;9.03;;
15679;SDS011;15488;48.114;11.532;2023-05-16T10:02:13;11.20;;;8.97;;
15679;SDS011;15488;48.114;11.532;2023-05-16T10:04:41;9.77;;;8.73;;
15679;SDS011;15488;48.114;11.532;2023-05-16T10:07:08;11.03;;;8.83;;
15679;SDS011;15488;48.114;11.532;2023-05-16T10:09:37;12.07;;;9.23;;
15679;SDS011;15488;48.114;11.532;2023-05-16T10:12:06;10.70;;;9.20;;
15679;SDS011;15488;48.114;11.532;2023-05-16T10:14:38;11.03;;;9.50;;
15679;SDS011;15488;48.114;11.532;2023-05-16T10:17:07;11.80;;;9.17;;
15679;SDS011;15488;48.114;11.532;2023-05-16T10:19:39;11.27;;;9.57;;
15679;SDS011;15488;48.114;11.532;2023-05-16T10:22:08;11.57;;;9.77;;
15679;SDS011;15488;48.114;11.532;2023-05-16T10:24:47;11.00;;;9.30;;
15679;SDS011;15488;48.114;11.532;2023-05-16T10:27:19;11.10;;;9.30;;
15679;SDS011;15488;48.114;11.532;2023-05-16T10:29:48;10.00;;;8.93;;
15679;SDS011;15488;48.114;11.532;2023-05-16T10:32:17;10.67;;;9.07;;
15679;SDS011;15488;48.114;11.532;2023-05-16T10:34:45;10.57;;;9.43;;
15679;SDS011;15488;48.114;11.532;2023-05-16T10:37:13;11.10;;;9.90;;
15679;SDS011;15488;48.114;11.532;2023-05-16T10:39:40;12.17;;;10.07;;
15679;SDS011;15488;48.114;11.532;2023-05-16T10:42:08;11.30;;;9.87;;
15679;SDS011;15488;48.114;11.532;2023-05-16T10:44:38;11.37;;;9.63;;
15679;SDS011;15488;48.114;11.532;2023-05-16T10:47:07;10.37;;;9.23;;
15679;SDS011;15488;48.114;11.532;2023-05-16T10:49:36;10.67;;;8.70;;
15679;SDS011;15488;48.114;11.532;2023-05-16T10:52:07;10.67;;;9.30;;
15679;SDS011;15488;48.114;11.532;2023-05-16T10:54:36;10.67;;;8.43;;
15679;SDS011;15488;48.114;11.532;2023-05-16T10:57:05;9.87;;;8.47;;
15679;SDS011;15488;48.114;11.532;2023-05-16T10:59:41;12.47;;;9.10;;
15679;SDS011;15488;48.114;11.532;2023-05-16T11:02:24;9.93;;;8.63;;
15679;SDS011;15488;48.114;11.532;2023-05-16T11:04:54;11.13;;;9.33;;
15679;SDS011;15488;48.114;11.532;2023-05-16T11:07:23;10.43;;;9.13;;
15679;SDS011;15488;48.114;11.532;2023-05-16T11:09:52;11.40;;;9.60;;
15679;SDS011;15488;48.114;11.532;2023-05-16T11:15:23;9.87;;;8.80;;
15679;SDS011;15488;48.114;11.532;2023-05-16T11:18:03;12.93;;;9.93;;
15679;SDS011;15488;48.114;11.532;2023-05-16T11:20:32;11.83;;;9.23;;
15679;SDS011;15488;48.114;11.532;2023-05-16T11:23:17;10.23;;;8.97;;
15679;SDS011;15488;48.114;11.532;2023-05-16T11:25:46;10.40;;;9.20;;
15679;SDS011;15488;48.114;11.532;2023-05-16T11:28:16;11.37;;;8.60;;
15679;SDS011;15488;48.114;11.532;2023-05-16T11:30:45;9.63;;;8.63;;
15679;SDS011;15488;48.114;11.532;2023-05-16T11:33:15;9.20;;;8.30;;
15679;SDS011;15488;48.114;11.532;2023-05-16T11:35:44;9.20;;;8.27;;
15679;SDS011;15488;48.114;11.532;2023-05-16T11:38:28;10.50;;;9.10;;
15679;SDS011;15488;48.114;11.532;2023-05-16T11:41:03;9.03;;;8.13;;
15679;SDS011;15488;48.114;11.532;2023-05-16T11:43:38;9.60;;;8.20;;
15679;SDS011;15488;48.114;11.532;2023-05-16T11:46:06;8.17;;;7.37;;
15679;SDS011;15488;48.114;11.532;2023-05-16T11:48:39;10.60;;;7.87;;
15679;SDS011;15488;48.114;11.532;2023-05-16T11:51:07;9.13;;;7.57;;
15679;SDS011;15488;48.114;11.532;2023-05-16T11:53:35;8.70;;;7.23;;
15679;SDS011;15488;48.114;11.532;2023-05-16T11:56:03;7.70;;;5.67;;
15679;SDS011;15488;48.114;11.532;2023-05-16T11:58:33;7.53;;;5.70;;
15679;SDS011;15488;48.114;11.532;2023-05-16T12:01:02;6.00;;;5.40;;
15679;SDS011;15488;48.114;11.532;2023-05-16T12:03:30;6.60;;;5.83;;
15679;SDS011;15488;48.114;11.532;2023-05-16T12:06:00;8.03;;;6.87;;
15679;SDS011;15488;48.114;11.532;2023-05-16T12:08:28;8.27;;;6.90;;
15679;SDS011;15488;48.114;11.532;2023-05-16T12:10:56;9.73;;;8.07;;
15679;SDS011;15488;48.114;11.532;2023-05-16T12:13:23;9.07;;;7.50;;
15679;SDS011;15488;48.114;11.532;2023-05-16T12:15:51;11.20;;;7.67;;
15679;SDS011;15488;48.114;11.532;2023-05-16T12:18:19;9.87;;;8.83;;
15679;SDS011;15488;48.114;11.532;2023-05-16T12:20:47;11.50;;;8.73;;
15679;SDS011;15488;48.114;11.532;2023-05-16T12:23:16;10.93;;;9.70;;
15679;SDS011;15488;48.114;11.532;2023-05-16T12:25:44;11.40;;;10.20;;
15679;SDS011;15488;48.114;11.532;2023-05-16T12:28:13;13.07;;;10.30;;
15679;SDS011;15488;48.114;11.532;2023-05-16T12:30:42;11.30;;;9.60;;
15679;SDS011;15488;48.114;11.532;2023-05-16T12:33:12;12.57;;;9.87;;
15679;SDS011;15488;48.114;11.532;2023-05-16T12:35:41;12.07;;;10.33;;
15679;SDS011;15488;48.114;11.532;2023-05-16T12:38:10;12.47;;;9.43;;
15679;SDS011;15488;48.114;11.532;2023-05-16T12:40:40;12.33;;;9.80;;
15679;SDS011;15488;48.114;11.532;2023-05-16T12:43:12;12.60;;;10.10;;
15679;SDS011;15488;48.114;11.532;2023-05-16T12:45:40;12.07;;;9.57;;
15679;SDS011;15488;48.114;11.532;2023-05-16T12:48:14;10.93;;;9.70;;
15679;SDS011;15488;48.114;11.532;2023-05-16T12:50:41;15.37;;;10.10;;
15679;SDS011;15488;48.114;11.532;2023-05-16T12:53:13;11.80;;;10.13;;
15679;SDS011;15488;48.114;11.532;2023-05-16T12:55:43;11.93;;;10.30;;
15679;SDS011;15488;48.114;11.532;2023-05-16T12:58:11;11.63;;;10.40;;
15679;SDS011;15488;48.114;11.532;2023-05-16T13:00:40;11.80;;;10.33;;
15679;SDS011;15488;48.114;11.532;2023-05-16T13:03:10;14.67;;;11.23;;
15679;SDS011;15488;48.114;11.532;2023-05-16T13:05:38;13.10;;;10.77;;
15679;SDS011;15488;48.114;11.532;2023-05-16T13:08:05;12.10;;;10.43;;
15679;SDS011;15488;48.114;11.532;2023-05-16T13:10:33;12.00;;;10.50;;
15679;SDS011;15488;48.114;11.532;2023-05-16T13:13:06;11.50;;;10.30;;
15679;SDS011;15488;48.114;11.532;2023-05-16T13:15:33;12.47;;;10.73;;
15679;SDS011;15488;48.114;11.532;2023-05-16T13:18:01;14.20;;;11.07;;
15679;SDS011;15488;48.114;11.532;2023-05-16T13:20:29;12.37;;;10.43;;
15679;SDS011;15488;48.114;11.532;2023-05-16T13:22:56;11.77;;;10.23;;
15679;SDS011;15488;48.114;11.532;2023-05-16T13:25:24;11.73;;;10.53;;
15679;SDS011;15488;48.114;11.532;2023-05-16T13:27:51;13.17;;;11.13;;
15679;SDS011;15488;48.114;11.532;2023-05-16T13:30:20;12.97;;;11.27;;
15679;SDS011;15488;48.114;11.532;2023-05-16T13:32:48;15.33;;;10.80;;
15679;SDS011;15488;48.114;11.532;2023-05-16T13:35:16;11.20;;;10.03;;
15679;SDS011;15488;48.114;11.532;2023-05-16T13:37:44;10.90;;;9.40;;
15679;SDS011;15488;48.114;11.532;2023-05-16T13:40:11;9.47;;;8.37;;
15679;SDS011;15488;48.114;11.532;2023-05-16T13:42:38;9.53;;;7.47;;
15679;SDS011;15488;48.114;11.532;2023-05-16T13:45:06;9.33;;;7.47;;
15679;SDS011;15488;48.114;11.532;2023-05-16T13:47:35;9.83;;;7.37;;
15679;SDS011;15488;48.114;11.532;2023-05-16T13:50:03;10.60;;;7.70;;
15679;SDS011;15488;48.114;11.532;2023-05-16T13:52:34;7.57;;;6.87;;
15679;SDS011;15488;48.114;11.532;2023-05-16T13:55:01;7.93;;;6.93;;
15679;SDS011;15488;48.114;11.532;2023-05-16T13:57:29;8.00;;;6.50;;
15679;SDS011;15488;48.114;11.532;2023-05-16T13:59:57;7.20;;;5.53;;
15679;SDS011;15488;48.114;11.532;2023-05-16T14:02:24;6.67;;;5.97;;
15679;SDS011;15488;48.114;11.532;2023-05-16T14:04:53;8.37;;;6.13;;
15679;SDS011;15488;48.114;11.532;2023-05-16T14:07:21;7.10;;;6.20;;
15679;SDS011;15488;48.114;11.532;2023-05-16T14:09:48;6.83;;;6.13;;
15679;SDS011;15488;48.114;11.532;2023-05-16T14:12:15;7.40;;;6.70;;
15679;SDS011;15488;48.114;11.532;2023-05-16T14:14:43;7.37;;;6.17;;
15679;SDS011;15488;48.114;11.532;2023-05-16T14:17:10;6.83;;;6.07;;
15679;SDS011;15488;48.114;11.532;2023-05-16T14:19:38;6.67;;;5.60;;
15679;SDS011;15488;48.114;11.532;2023-05-16T14:22:07;6.03;;;5.43;;
15679;SDS011;15488;48.114;11.532;2023-05-16T14:24:34;5.90;;;5.30;;
15679;SDS011;15488;48.114;11.532;2023-05-16T14:27:02;7.00;;;5.50;;
15679;SDS011;15488;48.114;11.532;2023-05-16T14:29:29;6.87;;;6.00;;
15679;SDS011;15488;48.114;11.532;2023-05-16T14:31:57;5.80;;;5.20;;
15679;SDS011;15488;48.114;11.532;2023-05-16T14:34:24;6.60;;;5.43;;
15679;SDS011;15488;48.114;11.532;2023-05-16T14:36:51;6.07;;;5.10;;
15679;SDS011;15488;48.114;11.532;2023-05-16T14:39:20;5.17;;;4.67;;
15679;SDS011;15488;48.114;11.532;2023-05-16T14:41:48;6.77;;;5.10;;
15679;SDS011;15488;48.114;11.532;2023-05-16T14:44:15;6.53;;;5.00;;